createdAt,value
2022-10-29T00:00:05.199Z,99.90
2022-10-29T00:02:36.133Z,99.90
2022-10-29T00:05:03.855Z,99.90
2022-10-29T00:07:37.121Z,99.90
2022-10-29T00:10:08.437Z,99.90
2022-10-29T00:12:36.711Z,99.90
2022-10-29T00:15:06.443Z,99.90
2022-10-29T00:17:34.986Z,99.90
2022-10-29T00:20:04.627Z,99.90
2022-10-29T00:22:39.996Z,99.90
2022-10-29T00:25:12.236Z,99.90
2022-10-29T00:27:45.623Z,99.90
2022-10-29T00:30:13.911Z,99.90
2022-10-29T00:32:47.054Z,99.90
2022-10-29T00:35:14.763Z,99.90
2022-10-29T00:37:51.622Z,99.90
2022-10-29T00:40:20.275Z,99.90
2022-10-29T00:42:47.754Z,99.90
2022-10-29T00:45:25.261Z,99.90
2022-10-29T00:47:53.978Z,99.90
2022-10-29T00:50:28.075Z,99.90
2022-10-29T00:53:02.318Z,99.90
2022-10-29T00:55:38.041Z,99.90
2022-10-29T00:58:13.064Z,99.90
2022-10-29T01:00:41.376Z,99.90
2022-10-29T01:03:11.456Z,99.90
2022-10-29T01:05:49.152Z,99.90
2022-10-29T01:08:17.332Z,99.90
2022-10-29T01:10:45.039Z,99.90
2022-10-29T01:13:49.004Z,99.90
2022-10-29T01:16:32.975Z,99.90
2022-10-29T01:19:10.367Z,99.90
2022-10-29T01:22:04.560Z,99.90
2022-10-29T01:25:08.330Z,99.90
2022-10-29T01:27:55.170Z,99.90
2022-10-29T01:30:49.851Z,99.90
2022-10-29T01:33:40.205Z,99.90
2022-10-29T01:39:37.454Z,99.90
2022-10-29T01:42:15.960Z,99.90
2022-10-29T01:44:56.449Z,99.90
2022-10-29T01:47:30.238Z,99.90
2022-10-29T01:50:02.799Z,99.90
2022-10-29T01:52:33.662Z,99.90
2022-10-29T01:55:05.645Z,99.90
2022-10-29T01:57:41.820Z,99.90
2022-10-29T02:00:21.494Z,99.90
2022-10-29T02:03:03.995Z,99.90
2022-10-29T02:06:08.370Z,99.90
2022-10-29T02:08:54.898Z,99.90
2022-10-29T02:11:31.595Z,99.90
2022-10-29T02:14:21.963Z,99.90
2022-10-29T02:16:53.309Z,99.90
2022-10-29T02:19:20.995Z,99.90
2022-10-29T02:21:53.437Z,99.90
2022-10-29T02:24:20.891Z,99.90
2022-10-29T02:26:51.198Z,99.90
2022-10-29T02:29:18.733Z,99.90
2022-10-29T02:31:49.116Z,99.90
2022-10-29T02:34:19.539Z,99.90
2022-10-29T02:36:50.710Z,99.90
2022-10-29T02:39:23.648Z,99.90
2022-10-29T02:41:53.302Z,99.90
2022-10-29T02:44:24.060Z,99.90
2022-10-29T02:46:55.882Z,99.90
2022-10-29T02:49:23.604Z,99.90
2022-10-29T02:51:53.136Z,99.90
2022-10-29T02:54:20.505Z,99.90
2022-10-29T02:56:53.109Z,99.90
2022-10-29T02:59:33.052Z,99.90
2022-10-29T03:02:06.918Z,99.90
2022-10-29T03:04:41.719Z,99.90
2022-10-29T03:07:09.581Z,99.90
2022-10-29T03:09:42.825Z,99.90
2022-10-29T03:12:13.292Z,99.90
2022-10-29T03:14:43.287Z,99.90
2022-10-29T03:17:17.221Z,99.90
2022-10-29T03:19:47.406Z,99.90
2022-10-29T03:22:22.143Z,99.90
2022-10-29T03:24:50.047Z,99.90
2022-10-29T03:27:20.272Z,99.90
2022-10-29T03:29:53.248Z,99.90
2022-10-29T03:32:20.742Z,99.90
2022-10-29T03:34:54.794Z,99.90
2022-10-29T03:37:32.046Z,99.90
2022-10-29T03:40:06.194Z,99.90
2022-10-29T03:42:34.165Z,99.90
2022-10-29T03:45:02.741Z,99.90
2022-10-29T03:47:38.799Z,99.90
2022-10-29T03:50:07.065Z,99.90
2022-10-29T03:52:40.581Z,99.90
2022-10-29T03:55:08.971Z,99.90
2022-10-29T03:57:43.954Z,99.90
2022-10-29T04:00:15.304Z,99.90
2022-10-29T04:02:43.933Z,99.90
2022-10-29T04:05:16.497Z,99.90
2022-10-29T04:07:44.053Z,99.90
2022-10-29T04:10:18.337Z,99.90
2022-10-29T04:12:52.523Z,99.90
2022-10-29T04:15:20.354Z,99.90
2022-10-29T04:29:26.397Z,99.90
2022-10-29T04:31:57.545Z,99.90
2022-10-29T04:34:35.396Z,99.90
2022-10-29T04:37:08.482Z,99.90
2022-10-29T04:39:41.113Z,99.90
2022-10-29T04:42:09.218Z,99.90
2022-10-29T04:44:40.133Z,99.90
2022-10-29T04:47:11.460Z,99.90
2022-10-29T04:49:47.785Z,99.90
2022-10-29T04:52:29.474Z,99.90
2022-10-29T04:55:02.515Z,99.90
2022-10-29T04:57:35.826Z,99.90
2022-10-29T05:00:08.876Z,99.90
2022-10-29T05:02:41.843Z,99.90
2022-10-29T05:05:18.849Z,99.90
2022-10-29T05:07:49.581Z,99.90
2022-10-29T05:10:37.363Z,99.90
2022-10-29T05:13:28.489Z,99.90
2022-10-29T05:16:01.865Z,99.90
2022-10-29T05:18:34.426Z,99.90
2022-10-29T05:21:07.309Z,99.90
2022-10-29T05:23:41.803Z,99.90
2022-10-29T05:26:25.582Z,99.90
2022-10-29T05:31:48.018Z,99.90
2022-10-29T05:34:21.978Z,99.90
2022-10-29T05:36:55.138Z,99.90
2022-10-29T05:39:23.175Z,99.90
2022-10-29T05:41:59.097Z,99.90
2022-10-29T05:44:34.267Z,99.90
2022-10-29T05:47:12.375Z,99.90
2022-10-29T05:50:04.714Z,99.90
2022-10-29T05:52:50.953Z,99.90
2022-10-29T05:55:21.343Z,99.90
2022-10-29T05:57:59.984Z,99.90
2022-10-29T06:00:37.141Z,99.90
2022-10-29T06:03:14.493Z,99.90
2022-10-29T06:05:45.753Z,99.90
2022-10-29T06:08:13.464Z,99.90
2022-10-29T06:10:47.659Z,99.90
2022-10-29T06:13:40.462Z,99.90
2022-10-29T06:16:16.365Z,99.90
2022-10-29T06:18:55.325Z,99.90
2022-10-29T06:21:38.620Z,99.90
2022-10-29T06:24:13.777Z,99.90
2022-10-29T06:26:41.910Z,99.90
2022-10-29T06:29:14.538Z,99.90
2022-10-29T06:32:02.867Z,99.90
2022-10-29T06:34:33.690Z,99.90
2022-10-29T06:37:05.341Z,99.90
2022-10-29T06:39:43.508Z,99.90
2022-10-29T06:42:24.695Z,99.90
2022-10-29T06:45:00.334Z,99.90
2022-10-29T06:47:30.145Z,99.90
2022-10-29T06:49:59.960Z,99.90
2022-10-29T06:52:33.811Z,99.90
2022-10-29T06:55:07.044Z,99.90
2022-10-29T06:57:45.580Z,99.90
2022-10-29T07:00:13.679Z,99.90
2022-10-29T07:02:56.207Z,99.90
2022-10-29T07:05:27.825Z,99.90
2022-10-29T07:08:00.157Z,99.90
2022-10-29T07:10:37.892Z,99.90
2022-10-29T07:13:10.039Z,99.90
2022-10-29T07:15:45.236Z,99.90
2022-10-29T07:18:20.775Z,99.90
2022-10-29T07:20:52.997Z,99.90
2022-10-29T07:23:21.036Z,99.90
2022-10-29T07:25:55.998Z,99.90
2022-10-29T07:28:29.397Z,99.90
2022-10-29T07:31:02.488Z,99.90
2022-10-29T07:33:33.363Z,99.90
2022-10-29T07:36:03.839Z,99.90
2022-10-29T07:38:36.283Z,99.90
2022-10-29T07:41:07.621Z,99.90
2022-10-29T07:43:38.203Z,99.90
2022-10-29T07:46:11.416Z,99.90
2022-10-29T07:48:51.175Z,99.90
2022-10-29T07:51:29.762Z,99.90
2022-10-29T07:53:56.925Z,99.90
2022-10-29T07:56:23.908Z,99.90
2022-10-29T07:58:50.870Z,99.90
2022-10-29T08:01:17.881Z,99.90
2022-10-29T08:03:44.899Z,99.90
2022-10-29T08:06:11.838Z,99.90
2022-10-29T08:08:38.885Z,99.70
2022-10-29T08:11:07.134Z,98.70
2022-10-29T08:13:34.123Z,98.50
2022-10-29T08:16:01.185Z,97.30
2022-10-29T08:18:28.144Z,96.30
2022-10-29T08:20:55.090Z,94.80
2022-10-29T08:23:22.057Z,93.60
2022-10-29T08:25:49.006Z,93.10
2022-10-29T08:28:16.378Z,91.70
2022-10-29T08:30:44.229Z,90.20
2022-10-29T08:33:11.693Z,87.30
2022-10-29T08:35:38.815Z,85.20
2022-10-29T08:38:05.887Z,83.60
2022-10-29T08:40:48.003Z,81.90
2022-10-29T08:43:35.850Z,77.70
2022-10-29T08:46:03.866Z,75.70
2022-10-29T08:49:04.675Z,73.20
2022-10-29T08:51:36.941Z,70.70
2022-10-29T08:54:29.657Z,67.20
2022-10-29T08:56:54.909Z,69.70
2022-10-29T08:59:24.757Z,67.10
2022-10-29T09:01:53.912Z,65.30
2022-10-29T09:04:39.390Z,64.90
2022-10-29T09:07:34.512Z,61.40
2022-10-29T09:10:27.147Z,58.60
2022-10-29T09:13:01.343Z,57.20
2022-10-29T09:15:40.339Z,56.40
2022-10-29T09:19:00.839Z,55.80
2022-10-29T09:21:44.178Z,55.50
2022-10-29T09:24:15.747Z,55.30
2022-10-29T09:27:10.561Z,55.20
2022-10-29T09:30:09.961Z,55.50
2022-10-29T09:32:48.040Z,55.50
2022-10-29T09:35:18.427Z,54.00
2022-10-29T09:38:02.422Z,53.40
2022-10-29T09:40:41.001Z,53.30
2022-10-29T09:43:27.692Z,52.60
2022-10-29T09:46:00.188Z,51.60
2022-10-29T09:48:27.052Z,52.90
2022-10-29T09:51:20.432Z,52.10
2022-10-29T09:53:47.524Z,51.10
2022-10-29T09:56:14.475Z,49.90
2022-10-29T09:58:46.588Z,49.30
2022-10-29T10:01:14.182Z,49.40
2022-10-29T10:03:45.863Z,48.30
2022-10-29T10:06:15.638Z,49.10
2022-10-29T10:09:05.293Z,49.00
2022-10-29T10:11:35.245Z,48.70
2022-10-29T10:14:25.143Z,48.10
2022-10-29T10:16:59.433Z,47.00
2022-10-29T10:19:29.410Z,47.10
2022-10-29T10:22:06.078Z,47.00
2022-10-29T10:24:35.371Z,47.80
2022-10-29T10:27:29.305Z,46.60
2022-10-29T10:30:05.650Z,48.00
2022-10-29T10:32:32.666Z,47.20
2022-10-29T10:34:59.625Z,47.10
2022-10-29T10:37:31.674Z,47.30
2022-10-29T10:40:05.059Z,46.70
2022-10-29T10:42:37.268Z,46.00
2022-10-29T10:45:16.777Z,46.10
2022-10-29T10:47:49.041Z,46.40
2022-10-29T10:50:31.339Z,45.40
2022-10-29T10:53:01.370Z,45.70
2022-10-29T10:55:33.728Z,46.10
2022-10-29T10:58:19.508Z,47.00
2022-10-29T11:01:01.322Z,48.20
2022-10-29T11:03:46.266Z,48.80
2022-10-29T11:06:21.036Z,51.60
2022-10-29T11:09:19.542Z,56.10
2022-10-29T11:12:13.711Z,59.70
2022-10-29T11:14:51.610Z,61.90
2022-10-29T11:17:29.129Z,64.50
2022-10-29T11:20:23.981Z,64.40
2022-10-29T11:22:55.163Z,66.40
2022-10-29T11:25:31.765Z,67.10
2022-10-29T11:28:20.068Z,68.80
2022-10-29T11:30:59.968Z,70.30
2022-10-29T11:33:43.997Z,70.20
2022-10-29T11:36:23.027Z,70.90
2022-10-29T11:38:49.895Z,71.30
2022-10-29T11:41:19.611Z,72.00
2022-10-29T11:43:47.907Z,73.60
2022-10-29T11:46:20.778Z,72.40
2022-10-29T11:49:02.530Z,72.70
2022-10-29T11:51:35.931Z,73.90
2022-10-29T11:54:36.624Z,73.40
2022-10-29T11:57:18.485Z,73.90
2022-10-29T12:00:13.045Z,75.10
2022-10-29T12:03:05.119Z,74.90
2022-10-29T12:05:47.131Z,74.00
2022-10-29T12:08:37.089Z,75.30
2022-10-29T12:11:12.949Z,75.70
2022-10-29T12:13:48.224Z,76.20
2022-10-29T12:16:35.736Z,75.60
2022-10-29T12:19:21.747Z,76.50
2022-10-29T12:22:22.638Z,76.50
2022-10-29T12:25:09.716Z,78.60
2022-10-29T12:27:39.383Z,78.40
2022-10-29T12:30:09.050Z,78.50
2022-10-29T12:32:55.055Z,79.00
2022-10-29T12:35:45.374Z,79.00
2022-10-29T12:38:18.366Z,80.40
2022-10-29T12:40:48.540Z,80.20
2022-10-29T12:43:31.871Z,80.90
2022-10-29T12:46:20.460Z,81.00
2022-10-29T12:49:20.841Z,81.60
2022-10-29T12:52:10.499Z,82.40
2022-10-29T12:54:46.208Z,82.00
2022-10-29T12:57:13.105Z,82.50
2022-10-29T12:59:41.661Z,82.70
2022-10-29T13:02:18.515Z,82.50
2022-10-29T13:05:07.321Z,83.00
2022-10-29T13:07:35.164Z,83.20
2022-10-29T13:10:24.060Z,83.30
2022-10-29T13:13:23.539Z,84.20
2022-10-29T13:16:02.263Z,84.40
2022-10-29T13:19:00.248Z,85.00
2022-10-29T13:22:03.150Z,84.00
2022-10-29T13:24:30.490Z,84.40
2022-10-29T13:27:04.321Z,84.30
2022-10-29T13:29:44.778Z,86.30
2022-10-29T13:32:35.085Z,85.90
2022-10-29T13:35:04.509Z,85.60
2022-10-29T13:38:10.560Z,87.00
2022-10-29T13:40:41.662Z,87.10
2022-10-29T13:43:14.488Z,87.20
2022-10-29T13:45:47.201Z,86.90
2022-10-29T13:48:28.844Z,87.20
2022-10-29T13:50:56.908Z,89.50
2022-10-29T13:53:34.429Z,89.10
2022-10-29T13:56:01.897Z,90.10
2022-10-29T13:58:34.301Z,91.20
2022-10-29T14:01:06.459Z,92.60
2022-10-29T14:03:51.488Z,92.00
2022-10-29T14:06:28.111Z,92.70
2022-10-29T14:09:27.484Z,92.70
2022-10-29T14:12:02.676Z,93.90
2022-10-29T14:15:01.597Z,94.30
2022-10-29T14:17:28.909Z,94.90
2022-10-29T14:19:55.843Z,95.10
2022-10-29T14:22:37.787Z,95.10
2022-10-29T14:25:24.704Z,95.30
2022-10-29T14:28:24.188Z,96.30
2022-10-29T14:31:14.391Z,96.70
2022-10-29T14:33:43.433Z,97.10
2022-10-29T14:36:16.225Z,96.70
2022-10-29T14:38:54.622Z,96.20
2022-10-29T14:41:22.591Z,97.40
2022-10-29T14:44:02.843Z,98.50
2022-10-29T14:46:33.176Z,99.90
2022-10-29T14:49:05.255Z,99.90
2022-10-29T14:51:38.753Z,99.90
2022-10-29T14:54:07.713Z,99.90
2022-10-29T14:56:38.436Z,99.90
2022-10-29T14:59:15.108Z,99.90
2022-10-29T15:01:49.087Z,99.90
2022-10-29T15:04:24.758Z,99.90
2022-10-29T15:06:52.710Z,99.90
2022-10-29T15:09:28.113Z,99.90
2022-10-29T15:12:01.070Z,99.90
2022-10-29T15:14:31.027Z,99.90
2022-10-29T15:16:59.792Z,99.90
2022-10-29T15:19:27.511Z,99.90
2022-10-29T15:21:54.560Z,99.90
2022-10-29T15:24:24.478Z,99.90
2022-10-29T15:27:02.256Z,99.90
2022-10-29T15:29:36.253Z,99.90
2022-10-29T15:32:05.430Z,99.90
2022-10-29T15:34:34.804Z,99.90
2022-10-29T15:37:15.675Z,99.90
2022-10-29T15:40:05.949Z,99.90
2022-10-29T15:42:35.481Z,99.90
2022-10-29T15:45:08.807Z,99.90
2022-10-29T15:47:41.319Z,99.90
2022-10-29T15:50:12.338Z,99.90
2022-10-29T15:52:52.270Z,99.90
2022-10-29T15:55:26.358Z,99.90
2022-10-29T15:57:56.562Z,99.90
2022-10-29T16:00:24.137Z,99.90
2022-10-29T16:02:51.807Z,99.90
2022-10-29T16:05:19.115Z,99.90
2022-10-29T16:07:48.691Z,99.90
2022-10-29T16:10:18.767Z,99.90
2022-10-29T16:12:46.539Z,99.90
2022-10-29T16:15:15.350Z,99.90
2022-10-29T16:17:42.416Z,99.90
2022-10-29T16:20:14.198Z,99.90
2022-10-29T16:22:41.285Z,99.90
2022-10-29T16:25:28.435Z,99.90
2022-10-29T16:27:56.558Z,99.90
2022-10-29T16:30:34.820Z,99.90
2022-10-29T16:33:14.206Z,99.90
2022-10-29T16:35:44.885Z,99.90
2022-10-29T16:38:14.248Z,99.90
2022-10-29T16:40:43.245Z,99.90
2022-10-29T16:43:15.426Z,99.90
2022-10-29T16:45:45.611Z,99.90
2022-10-29T16:48:15.705Z,99.90
2022-10-29T16:50:50.491Z,99.90
2022-10-29T16:53:26.024Z,99.90
2022-10-29T16:56:02.012Z,99.90
2022-10-29T16:58:35.571Z,99.90
2022-10-29T17:01:13.328Z,99.90
2022-10-29T17:03:45.142Z,99.90
2022-10-29T17:06:13.029Z,99.90
2022-10-29T17:08:44.593Z,99.90
2022-10-29T17:11:12.368Z,99.90
2022-10-29T17:13:50.559Z,99.90
2022-10-29T17:16:19.411Z,99.90
2022-10-29T17:18:52.311Z,99.90
2022-10-29T17:21:22.443Z,99.90
2022-10-29T17:23:55.913Z,99.90
2022-10-29T17:26:26.730Z,99.90
2022-10-29T17:29:01.130Z,99.90
2022-10-29T17:31:39.915Z,99.90
2022-10-29T17:34:08.298Z,99.90
2022-10-29T17:36:42.854Z,99.90
2022-10-29T17:39:20.719Z,99.90
2022-10-29T17:41:56.056Z,99.90
2022-10-29T17:44:23.934Z,99.90
2022-10-29T17:46:51.393Z,99.90
2022-10-29T17:49:18.672Z,99.90
2022-10-29T17:51:48.966Z,99.90
2022-10-29T17:54:16.873Z,99.90
2022-10-29T17:56:44.183Z,99.90
2022-10-29T17:59:13.181Z,99.90
2022-10-29T18:01:40.915Z,99.90
2022-10-29T18:04:08.363Z,99.90
2022-10-29T18:06:35.802Z,99.90
2022-10-29T18:09:03.605Z,99.90
2022-10-29T18:11:31.090Z,99.90
2022-10-29T18:13:58.777Z,99.90
2022-10-29T18:16:28.973Z,99.90
2022-10-29T18:19:02.847Z,99.90
2022-10-29T18:21:31.714Z,99.90
2022-10-29T18:23:59.341Z,99.90
2022-10-29T18:26:35.103Z,99.90
2022-10-29T18:29:07.512Z,99.90
2022-10-29T18:31:36.086Z,99.90
2022-10-29T18:34:06.681Z,99.90
2022-10-29T18:36:36.026Z,99.90
2022-10-29T18:39:05.128Z,99.90
2022-10-29T18:41:33.031Z,99.90
2022-10-29T18:44:01.125Z,99.90
2022-10-29T18:46:28.642Z,99.90
2022-10-29T18:48:55.886Z,99.90
2022-10-29T18:51:26.932Z,99.90
2022-10-29T18:53:56.327Z,99.90
2022-10-29T18:56:27.401Z,99.90
2022-10-29T18:58:58.332Z,99.90
2022-10-29T19:01:28.282Z,99.90
2022-10-29T19:03:57.558Z,99.90
2022-10-29T19:06:27.629Z,99.90
2022-10-29T19:08:55.426Z,99.90
2022-10-29T19:11:25.586Z,99.90
2022-10-29T19:13:54.823Z,99.90
2022-10-29T19:16:22.333Z,99.90
2022-10-29T19:18:58.465Z,99.90
2022-10-29T19:21:26.649Z,99.90
2022-10-29T19:23:55.983Z,99.90
2022-10-29T19:26:25.053Z,99.90
2022-10-29T19:28:53.650Z,99.90
2022-10-29T19:31:31.149Z,99.90
2022-10-29T19:34:07.576Z,99.90
2022-10-29T19:36:40.668Z,99.90
2022-10-29T19:39:14.794Z,99.90
2022-10-29T19:41:50.918Z,99.90
2022-10-29T19:44:20.794Z,99.90
2022-10-29T19:46:52.737Z,99.90
2022-10-29T19:49:22.094Z,99.90
2022-10-29T19:51:55.487Z,99.90
2022-10-29T19:54:28.516Z,99.90
2022-10-29T19:56:59.534Z,99.90
2022-10-29T19:59:27.711Z,99.90
2022-10-29T20:01:58.430Z,99.90
2022-10-29T20:04:39.366Z,99.90
2022-10-29T20:07:08.088Z,99.90
2022-10-29T20:09:39.140Z,99.90
2022-10-29T20:12:07.928Z,99.90
2022-10-29T20:14:36.397Z,99.90
2022-10-29T20:17:09.083Z,99.90
2022-10-29T20:19:38.785Z,99.90
2022-10-29T20:22:12.137Z,99.90
2022-10-29T20:24:45.383Z,99.90
2022-10-29T20:27:18.165Z,99.90
2022-10-29T20:29:57.596Z,99.90
2022-10-29T20:32:26.074Z,99.90
2022-10-29T20:34:57.317Z,99.90
2022-10-29T20:37:25.576Z,99.90
2022-10-29T20:40:03.396Z,99.90
2022-10-29T20:42:31.056Z,99.90
2022-10-29T20:44:58.176Z,99.90
2022-10-29T20:47:25.625Z,99.90
2022-10-29T20:49:52.714Z,99.90
2022-10-29T20:52:19.662Z,99.90
2022-10-29T20:54:46.752Z,99.90
2022-10-29T20:57:13.904Z,99.90
2022-10-29T20:59:41.974Z,99.90
2022-10-29T21:02:11.499Z,99.90
2022-10-29T21:04:39.418Z,99.90
2022-10-29T21:07:07.843Z,99.90
2022-10-29T21:09:34.978Z,99.90
2022-10-29T21:12:01.941Z,99.90
2022-10-29T21:14:29.777Z,99.90
2022-10-29T21:16:56.883Z,99.90
2022-10-29T21:19:24.866Z,99.90
2022-10-29T21:21:51.870Z,99.90
2022-10-29T21:24:20.469Z,99.90
2022-10-29T21:26:47.485Z,99.90
2022-10-29T21:29:14.606Z,99.90
2022-10-29T21:31:41.681Z,99.90
2022-10-29T21:34:08.840Z,99.90
2022-10-29T21:36:35.951Z,99.90
2022-10-29T21:39:03.047Z,99.90
2022-10-29T21:41:29.970Z,99.90
2022-10-29T21:43:56.900Z,99.90
2022-10-29T21:46:23.837Z,99.90
2022-10-29T21:48:50.778Z,99.90
2022-10-29T21:51:17.717Z,99.90
2022-10-29T21:53:44.678Z,99.90
2022-10-29T21:56:13.429Z,99.90
2022-10-29T21:58:40.758Z,99.90
2022-10-29T22:01:18.659Z,99.90
2022-10-29T22:03:47.313Z,99.90
2022-10-29T22:06:15.769Z,99.90
2022-10-29T22:08:43.609Z,99.90
2022-10-29T22:11:11.645Z,99.90
2022-10-29T22:13:38.849Z,99.90
2022-10-29T22:16:07.005Z,99.90
2022-10-29T22:18:34.454Z,99.90
2022-10-29T22:21:05.468Z,99.90
2022-10-29T22:23:32.693Z,99.90
2022-10-29T22:25:59.702Z,99.90
2022-10-29T22:28:26.612Z,99.90
2022-10-29T22:31:04.261Z,99.90
2022-10-29T22:33:33.664Z,99.90
2022-10-29T22:36:06.435Z,99.90
2022-10-29T22:38:33.366Z,99.90
2022-10-29T22:41:05.633Z,99.90
2022-10-29T22:43:32.564Z,99.90
2022-10-29T22:45:59.509Z,99.90
2022-10-29T22:48:26.433Z,99.90
2022-10-29T22:51:04.932Z,99.90
2022-10-29T22:53:32.366Z,99.90
2022-10-29T22:56:00.102Z,99.90
2022-10-29T22:58:27.096Z,99.90
2022-10-29T23:01:04.640Z,99.90
2022-10-29T23:03:32.347Z,99.90
2022-10-29T23:06:00.854Z,99.90
2022-10-29T23:08:28.642Z,99.90
2022-10-29T23:10:55.922Z,99.90
2022-10-29T23:13:23.053Z,99.90
2022-10-29T23:15:51.401Z,99.90
2022-10-29T23:18:19.017Z,99.90
2022-10-29T23:20:46.237Z,99.90
2022-10-29T23:23:13.923Z,99.90
2022-10-29T23:25:41.832Z,99.90
2022-10-29T23:28:09.668Z,99.90
2022-10-29T23:30:36.733Z,99.90
2022-10-29T23:33:03.720Z,99.90
2022-10-29T23:35:30.644Z,99.90
2022-10-29T23:37:57.749Z,99.90
2022-10-29T23:40:24.838Z,99.90
2022-10-29T23:42:51.791Z,99.90
2022-10-29T23:45:18.716Z,99.90
2022-10-29T23:47:45.643Z,99.90
2022-10-29T23:50:12.572Z,99.90
2022-10-29T23:52:39.486Z,99.90
2022-10-29T23:55:06.831Z,99.90
2022-10-29T23:57:33.775Z,99.90
